Schneifelwetter: Wetterstation Hallschlag, 537 m . NN
Wetterdaten: Sonntag, 07.08.2011
Datum Zeit Temp. A. Feuchte A. Luftdruck Regen Wind Richtung Richtung Sonnenschein Helligkeit T Regen Taupunkt Windchill
07.08.2011 00:09 14,1 C 95 % 1002 hPa 0,0 l/m 17,2 km/h (3 Bft) SW22.5 235 0 min 0 lux 0 min 13,3 C 9,4 C
07.08.2011 00:24 14,1 C 95 % 1003 hPa 0,0 l/m 21,0 km/h (4 Bft) W-SW22.5 240 0 min 0 lux 0 min 13,3 C 8,3 C
07.08.2011 00:39 14,1 C 95 % 1002 hPa 0,0 l/m 20,1 km/h (4 Bft) W-SW45 255 0 min 0 lux 0 min 13,3 C 8,6 C
07.08.2011 00:54 13,9 C 95 % 1003 hPa 0,9 l/m 29,0 km/h (5 Bft) W67.5 260 0 min 0 lux 15 min 13,1 C 6,3 C
07.08.2011 01:09 13,4 C 95 % 1003 hPa 0,0 l/m 22,0 km/h (4 Bft) W45 265 0 min 0 lux 0 min 12,6 C 7,2 C
07.08.2011 01:24 13,2 C 95 % 1003 hPa 0,0 l/m 19,7 km/h (3 Bft) W-SW22.5 255 0 min 0 lux 0 min 12,4 C 7,5 C
07.08.2011 01:39 13,0 C 95 % 1003 hPa 0,0 l/m 12,6 km/h (3 Bft) W-SW22.5 250 0 min 0 lux 0 min 12,2 C 9,7 C
07.08.2011 01:54 12,9 C 95 % 1003 hPa 0,0 l/m 12,8 km/h (3 Bft) W-SW 255 0 min 0 lux 0 min 12,1 C 9,5 C
07.08.2011 02:09 12,9 C 95 % 1003 hPa 0,3 l/m 13,1 km/h (3 Bft) W-SW 245 0 min 0 lux 15 min 12,1 C 9,4 C
07.08.2011 02:24 12,8 C 95 % 1003 hPa 0,0 l/m 11,3 km/h (2 Bft) W-SW 250 0 min 0 lux 0 min 12,0 C 10,1 C
07.08.2011 02:39 12,8 C 96 % 1003 hPa 0,0 l/m 19,7 km/h (3 Bft) W-SW22.5 250 0 min 0 lux 0 min 12,2 C 7,0 C
07.08.2011 02:54 12,8 C 96 % 1003 hPa 0,0 l/m 22,8 km/h (4 Bft) W-SW45 255 0 min 0 lux 0 min 12,2 C 6,2 C
07.08.2011 03:09 12,8 C 96 % 1003 hPa 0,0 l/m 24,8 km/h (4 Bft) W45 270 0 min 0 lux 0 min 12,2 C 5,7 C
07.08.2011 03:24 12,6 C 95 % 1003 hPa 0,3 l/m 23,6 km/h (4 Bft) W45 270 0 min 0 lux 15 min 11,8 C 5,7 C
07.08.2011 03:39 12,4 C 95 % 1004 hPa 0,0 l/m 15,1 km/h (3 Bft) W-SW 250 0 min 0 lux 0 min 11,6 C 8,0 C
07.08.2011 03:54 12,0 C 95 % 1004 hPa 0,0 l/m 21,7 km/h (4 Bft) W45 270 0 min 0 lux 0 min 11,2 C 5,4 C
07.08.2011 04:09 11,7 C 94 % 1004 hPa 0,0 l/m 25,1 km/h (4 Bft) W45 260 0 min 0 lux 0 min 10,8 C 4,1 C
07.08.2011 04:24 11,4 C 94 % 1004 hPa 0,0 l/m 23,5 km/h (4 Bft) W45 260 0 min 0 lux 0 min 10,5 C 4,1 C
07.08.2011 04:39 11,3 C 94 % 1004 hPa 0,0 l/m 17,4 km/h (3 Bft) W22.5 275 0 min 0 lux 0 min 10,4 C 5,8 C
07.08.2011 04:54 11,2 C 95 % 1004 hPa 0,0 l/m 26,0 km/h (4 Bft) W22.5 270 0 min 0 lux 0 min 10,4 C 3,2 C
07.08.2011 05:09 11,2 C 95 % 1004 hPa 0,0 l/m 27,8 km/h (4 Bft) W22.5 270 0 min 0 lux 0 min 10,4 C 2,8 C
07.08.2011 05:24 11,1 C 95 % 1004 hPa 0,0 l/m 18,3 km/h (3 Bft) W45 265 0 min 0 lux 0 min 10,3 C 5,3 C
07.08.2011 05:39 11,1 C 94 % 1004 hPa 0,0 l/m 25,6 km/h (4 Bft) W45 260 0 min 0 lux 0 min 10,2 C 3,2 C
07.08.2011 05:54 11,0 C 94 % 1005 hPa 0,0 l/m 27,0 km/h (4 Bft) W22.5 265 0 min 0 lux 0 min 10,1 C 2,7 C
07.08.2011 06:09 10,9 C 94 % 1005 hPa 0,0 l/m 27,1 km/h (4 Bft) W67.5 260 0 min 147 lux 0 min 10,0 C 2,5 C
07.08.2011 06:24 10,7 C 93 % 1005 hPa 0,0 l/m 23,4 km/h (4 Bft) W-SW67.5 250 0 min 882 lux 0 min 9,6 C 3,2 C
07.08.2011 06:39 10,2 C 94 % 1006 hPa 0,0 l/m 17,0 km/h (3 Bft) W45 265 0 min 912 lux 0 min 9,3 C 4,6 C
07.08.2011 06:54 10,0 C 94 % 1006 hPa 0,0 l/m 17,0 km/h (3 Bft) W-SW22.5 255 0 min 1,13 klux 0 min 9,1 C 4,3 C
07.08.2011 07:09 10,0 C 94 % 1006 hPa 0,0 l/m 28,6 km/h (4 Bft) W-SW45 255 0 min 2,76 klux 0 min 9,1 C 1,0 C
07.08.2011 07:24 10,2 C 95 % 1006 hPa 0,0 l/m 17,2 km/h (3 Bft) W-SW22.5 250 0 min 3,49 klux 0 min 9,4 C 4,5 C
07.08.2011 07:39 10,2 C 94 % 1006 hPa 0,0 l/m 13,8 km/h (3 Bft) W-SW45 245 0 min 3,99 klux 0 min 9,3 C 5,9 C
07.08.2011 07:54 10,3 C 94 % 1006 hPa 0,0 l/m 22,4 km/h (4 Bft) W-SW22.5 250 0 min 5,08 klux 0 min 9,4 C 2,9 C
07.08.2011 08:09 10,4 C 94 % 1006 hPa 0,0 l/m 16,6 km/h (3 Bft) W-SW22.5 250 0 min 5,64 klux 0 min 9,5 C 5,0 C
07.08.2011 08:24 10,7 C 94 % 1007 hPa 0,0 l/m 13,9 km/h (3 Bft) SW22.5 235 0 min 7,28 klux 0 min 9,8 C 6,4 C
07.08.2011 08:39 11,1 C 94 % 1007 hPa 0,0 l/m 17,3 km/h (3 Bft) W22.5 260 0 min 10,4 klux 0 min 10,2 C 5,6 C
07.08.2011 08:54 11,4 C 93 % 1007 hPa 0,0 l/m 14,8 km/h (3 Bft) W-SW45 245 0 min 12,3 klux 0 min 10,3 C 6,9 C
07.08.2011 09:09 11,7 C 92 % 1007 hPa 0,0 l/m 19,0 km/h (3 Bft) W-SW67.5 240 0 min 15,3 klux 0 min 10,4 C 5,8 C
07.08.2011 09:24 12,9 C 91 % 1007 hPa 0,0 l/m 20,5 km/h (4 Bft) W-SW45 240 0 min 57,0 klux 0 min 11,5 C 6,9 C
07.08.2011 09:45 14,0 C 88 % 1007 hPa 0,0 l/m 23,6 km/h (4 Bft) W-SW45 240 21 min 69,7 klux 0 min 12,0 C 7,6 C
07.08.2011 10:00 14,3 C 85 % 1007 hPa 0,0 l/m 21,5 km/h (4 Bft) W-SW67.5 250 15 min 76,4 klux 0 min 11,8 C 8,5 C
07.08.2011 10:15 14,7 C 83 % 1007 hPa 0,0 l/m 29,7 km/h (5 Bft) W-SW22.5 255 15 min 76,8 klux 0 min 11,8 C 7,3 C
07.08.2011 10:30 14,6 C 79 % 1007 hPa 0,0 l/m 29,5 km/h (5 Bft) W-SW67.5 255 15 min 73,3 klux 0 min 11,0 C 7,2 C
07.08.2011 10:45 15,7 C 78 % 1007 hPa 0,0 l/m 30,3 km/h (5 Bft) SW45 230 15 min 79,4 klux 0 min 11,9 C 8,6 C
07.08.2011 11:00 15,9 C 75 % 1007 hPa 0,0 l/m 35,3 km/h (5 Bft) W-SW22.5 240 15 min 87,4 klux 0 min 11,5 C 8,2 C
07.08.2011 11:15 16,2 C 76 % 1007 hPa 0,0 l/m 23,3 km/h (4 Bft) W-SW45 245 15 min 90,9 klux 0 min 12,0 C 10,6 C
07.08.2011 11:30 16,4 C 74 % 1007 hPa 0,0 l/m 38,1 km/h (5 Bft) W-SW45 255 15 min 85,9 klux 0 min 11,8 C 8,6 C
07.08.2011 11:45 17,4 C 69 % 1007 hPa 0,0 l/m 38,6 km/h (5 Bft) SW45 235 15 min 96,3 klux 0 min 11,7 C 10,0 C
07.08.2011 12:00 17,6 C 66 % 1007 hPa 0,0 l/m 32,1 km/h (5 Bft) SW67.5 235 15 min 88,0 klux 0 min 11,2 C 11,1 C
07.08.2011 12:15 16,4 C 69 % 1007 hPa 0,0 l/m 40,5 km/h (6 Bft) W-SW67.5 255 15 min 84,2 klux 0 min 10,7 C 8,3 C
07.08.2011 12:30 16,4 C 70 % 1007 hPa 0,0 l/m 39,2 km/h (6 Bft) W45 260 15 min 90,4 klux 0 min 10,9 C 8,5 C
07.08.2011 12:45 16,7 C 68 % 1007 hPa 0,0 l/m 38,7 km/h (5 Bft) W45 260 15 min 67,8 klux 0 min 10,8 C 9,0 C
07.08.2011 13:00 16,4 C 68 % 1007 hPa 0,0 l/m 37,2 km/h (5 Bft) W-SW45 250 15 min 95,7 klux 0 min 10,5 C 8,7 C
07.08.2011 13:15 16,7 C 65 % 1007 hPa 0,0 l/m 33,1 km/h (5 Bft) W45 260 15 min 91,4 klux 0 min 10,1 C 9,6 C
07.08.2011 13:30 16,9 C 65 % 1007 hPa 0,0 l/m 37,5 km/h (5 Bft) W-SW45 255 15 min 94,0 klux 0 min 10,3 C 9,4 C
07.08.2011 13:45 17,4 C 65 % 1008 hPa 0,0 l/m 31,5 km/h (5 Bft) SW45 225 15 min 109 klux 0 min 10,8 C 10,9 C
07.08.2011 14:00 17,9 C 60 % 1008 hPa 0,0 l/m 32,9 km/h (5 Bft) W-SW45 240 15 min 110 klux 0 min 10,0 C 11,4 C
07.08.2011 14:15 17,9 C 62 % 1008 hPa 0,0 l/m 31,9 km/h (5 Bft) W-SW45 240 15 min 82,0 klux 0 min 10,5 C 11,5 C
07.08.2011 14:30 17,9 C 63 % 1008 hPa 0,0 l/m 28,3 km/h (4 Bft) SW67.5 225 15 min 82,9 klux 0 min 10,8 C 12,0 C
07.08.2011 14:45 18,4 C 61 % 1008 hPa 0,0 l/m 35,3 km/h (5 Bft) W-SW45 250 15 min 106 klux 0 min 10,7 C 11,8 C
07.08.2011 15:00 18,1 C 59 % 1008 hPa 0,0 l/m 34,5 km/h (5 Bft) W-SW45 250 15 min 84,9 klux 0 min 10,0 C 11,5 C
07.08.2011 15:15 18,4 C 59 % 1008 hPa 0,0 l/m 35,2 km/h (5 Bft) W45 260 15 min 95,3 klux 0 min 10,2 C 11,8 C
07.08.2011 15:30 18,5 C 60 % 1008 hPa 0,0 l/m 36,9 km/h (5 Bft) W22.5 265 15 min 103 klux 0 min 10,6 C 11,8 C
07.08.2011 15:45 18,5 C 58 % 1008 hPa 0,0 l/m 35,8 km/h (5 Bft) W45 260 15 min 95,6 klux 0 min 10,1 C 11,9 C
07.08.2011 16:00 18,2 C 60 % 1008 hPa 0,0 l/m 29,6 km/h (5 Bft) W-SW22.5 255 15 min 90,8 klux 0 min 10,3 C 12,2 C
07.08.2011 16:15 17,6 C 61 % 1008 hPa 0,0 l/m 24,7 km/h (4 Bft) SW45 215 0 min 26,2 klux 0 min 10,0 C 12,2 C
07.08.2011 16:30 17,7 C 61 % 1008 hPa 0,0 l/m 30,8 km/h (5 Bft) W-SW45 255 0 min 38,4 klux 0 min 10,1 C 11,4 C
07.08.2011 16:45 17,6 C 63 % 1007 hPa 0,0 l/m 25,6 km/h (4 Bft) W22.5 260 15 min 89,7 klux 0 min 10,5 C 12,0 C
07.08.2011 17:00 17,5 C 60 % 1007 hPa 0,0 l/m 26,5 km/h (4 Bft) SW45 235 0 min 52,8 klux 0 min 9,6 C 11,7 C
07.08.2011 17:15 17,8 C 61 % 1007 hPa 0,0 l/m 25,8 km/h (4 Bft) W-SW67.5 240 15 min 83,3 klux 0 min 10,2 C 12,3 C
07.08.2011 17:30 17,9 C 61 % 1007 hPa 0,0 l/m 29,8 km/h (5 Bft) W-SW45 245 15 min 75,8 klux 0 min 10,3 C 11,8 C
07.08.2011 17:44 17,3 C 62 % 1007 hPa 0,0 l/m 27,5 km/h (4 Bft) W-SW22.5 255 14 min 68,3 klux 0 min 9,9 C 11,3 C
07.08.2011 18:00 17,3 C 62 % 1007 hPa 0,0 l/m 25,8 km/h (4 Bft) SW45 230 0 min 26,5 klux 0 min 9,9 C 11,6 C
07.08.2011 18:15 17,4 C 62 % 1007 hPa 0,0 l/m 26,9 km/h (4 Bft) SW45 215 0 min 59,2 klux 0 min 10,0 C 11,5 C
07.08.2011 18:30 17,4 C 61 % 1007 hPa 0,0 l/m 24,1 km/h (4 Bft) W-SW45 240 0 min 40,7 klux 0 min 9,8 C 12,0 C
07.08.2011 18:45 16,8 C 63 % 1007 hPa 0,0 l/m 25,8 km/h (4 Bft) SW67.5 235 0 min 23,0 klux 0 min 9,7 C 10,9 C
07.08.2011 19:00 16,4 C 64 % 1007 hPa 0,0 l/m 31,1 km/h (5 Bft) W-SW22.5 245 0 min 19,0 klux 0 min 9,6 C 9,5 C
07.08.2011 19:14 15,9 C 65 % 1007 hPa 0,0 l/m 18,9 km/h (3 Bft) SW45 225 0 min 13,8 klux 0 min 9,3 C 11,2 C
07.08.2011 19:30 15,6 C 67 % 1007 hPa 0,0 l/m 22,7 km/h (4 Bft) SW45 235 0 min 10,4 klux 0 min 9,5 C 9,9 C
07.08.2011 19:45 15,6 C 68 % 1007 hPa 0,0 l/m 22,1 km/h (4 Bft) W-SW45 240 0 min 26,7 klux 0 min 9,7 C 10,0 C
07.08.2011 20:00 15,5 C 67 % 1007 hPa 0,0 l/m 19,5 km/h (3 Bft) SW22.5 225 0 min 22,2 klux 0 min 9,4 C 10,5 C
07.08.2011 20:15 15,0 C 68 % 1006 hPa 0,0 l/m 19,0 km/h (3 Bft) S22.5 190 0 min 16,6 klux 0 min 9,1 C 10,0 C
07.08.2011 20:30 14,3 C 69 % 1006 hPa 0,0 l/m 17,1 km/h (3 Bft) S-SW22.5 210 0 min 9,7 klux 0 min 8,7 C 9,7 C
07.08.2011 20:44 13,6 C 70 % 1006 hPa 0,0 l/m 10,7 km/h (2 Bft) S-SW22.5 205 0 min 2,71 klux 0 min 8,2 C 11,2 C
07.08.2011 21:00 13,0 C 71 % 1007 hPa 0,0 l/m 8,3 km/h (2 Bft) S-SW 210 0 min 1,67 klux 0 min 7,9 C 11,8 C
07.08.2011 21:15 12,2 C 73 % 1007 hPa 0,0 l/m 7,4 km/h (2 Bft) S-SW 210 0 min 747 lux 0 min 7,5 C 11,5 C
07.08.2011 21:30 11,7 C 75 % 1007 hPa 0,0 l/m 7,8 km/h (2 Bft) S-SW 210 0 min 176 lux 0 min 7,4 C 10,8 C
07.08.2011 21:45 11,8 C 78 % 1007 hPa 0,0 l/m 9,1 km/h (2 Bft) S-SW 205 0 min 18 lux 0 min 8,1 C 10,1 C
07.08.2011 22:00 12,0 C 79 % 1007 hPa 0,0 l/m 11,2 km/h (2 Bft) S-SW22.5 205 0 min 0 lux 0 min 8,5 C 9,2 C
07.08.2011 22:15 12,2 C 80 % 1007 hPa 0,0 l/m 10,8 km/h (2 Bft) SW45 215 0 min 0 lux 0 min 8,9 C 9,6 C
07.08.2011 22:30 12,0 C 79 % 1007 hPa 0,0 l/m 13,8 km/h (3 Bft) S45 170 0 min 0 lux 0 min 8,5 C 8,0 C
07.08.2011 22:45 11,8 C 80 % 1007 hPa 0,0 l/m 11,2 km/h (2 Bft) S-SW22.5 195 0 min 0 lux 0 min 8,5 C 9,0 C
07.08.2011 23:00 11,7 C 81 % 1007 hPa 0,0 l/m 12,3 km/h (3 Bft) S-SW22.5 195 0 min 0 lux 0 min 8,5 C 8,3 C
07.08.2011 23:15 11,6 C 81 % 1006 hPa 0,0 l/m 14,9 km/h (3 Bft) S-SW22.5 200 0 min 0 lux 0 min 8,5 C 7,1 C
07.08.2011 23:30 11,2 C 81 % 1006 hPa 0,0 l/m 11,5 km/h (2 Bft) S22.5 190 0 min 0 lux 0 min 8,1 C 8,1 C
07.08.2011 23:45 11,1 C 83 % 1006 hPa 0,0 l/m 16,7 km/h (3 Bft) S-SW22.5 205 0 min 0 lux 0 min 8,3 C 5,8 C
07.08.2011 23:54 11,2 C 83 % 1006 hPa 0,0 l/m 13,6 km/h (3 Bft) S-SW22.5 195 0 min 0 lux 0 min 8,4 C 7,2 C
_ Min-Zeit 06:54 15:45 00:09 - 21:15 - - - - - 21:30 07:09
Minimum _ 10,0 C 58 % 1002 hPa - 7,4 km/h (2 Bft) - - - - - 7,4 C 1,0 C
_ Max-Zeit 15:30 02:39 13:45 00:54 12:15 - - 09:45 14:00 00:54 00:09 17:15
Maximum _ 18,5 C 96 % 1008 hPa 0,9 l/m 40,5 km/h
W-SW (6 Bft)
- - 21 min 110 klux 15 min 13,3 C 12,3 C
Durchschnitt _ 14,1 C 79 % 1006 hPa #1,5 l/m 23,3 km/h (4 Bft) W-SW - #7:35 h 33,1 klux #45 min. 10,3 C 8,4 C